• Join FlightAware (Why Join?)
  • Login
  • US Flag 
02:46PM EDT


 

Airport Tracker/Info


-or-


 

Live Flight TrackerFlight Track Log ✈ N232BG ✈ 18-Aug-2013 ✈ KBED - KTTN

Flight Track Log - Related Links

Times and Time Zones

All times are in EDT time to prevent confusion due to time zone crossing. See the N232BG flight status page for this flight to view local times or setup timezone preferences in your user account.

Time Position Orientation Groundspeed Altitude Reporting Facility
EDT Latitude Longitude Course Direction KTS MPH feet Rate Location/Type
04:30PM 42.5833 -71.4667 105° East 237 273 4,500  Level KA90
04:31PM 42.5667 -71.3833 105° East 235 270 3,000 -1,140 Descending KA90
04:33PM 42.5258 -71.2794 118° Southeast 202 232 1,400 -840 Descending Boston Center
04:34PM 42.5006 -71.2603 151° Southeast 132 152 800 -600 Descending Boston Center
04:35PM 42.4800 -71.2803 216° Southwest 93 107 300 4,260 Descending Boston Center
04:36PM 42.4508 -71.2808 181° South 93 107 9,500 4,560 Climbing Boston Center
04:37PM 42.4258 -71.2897 195° South 93 107 9,500  Level Boston Center
04:38PM 42.3989 -71.2958 190° South 93 107 9,500  Level Boston Center
04:39PM 42.3781 -71.3019 192° South 93 107 9,500 -180 Level Boston Center
04:42PM 42.4013 -71.3501 303° West  Level FlightAware Approximate
04:49PM 42.3064 -71.5135 257° West  Level Estimated
04:50PM 42.2928 -71.5369 257° West  Level Estimated
04:51PM 42.3042 -71.5622 302° West  Level FlightAware Approximate
04:52PM 42.3157 -71.5875 302° West  Level FlightAware Approximate
04:53PM 42.3272 -71.6128 302° West  Level FlightAware Approximate
04:54PM 42.3133 -71.6357 246° West  Level Estimated
04:55PM 42.3220 -71.6629 294° West  Level FlightAware Approximate
04:56PM 42.3080 -71.6857 246° West  Level Estimated
04:57PM 42.2939 -71.7085 270° West  Level Estimated
04:58PM 42.2799 -71.7313 258° West  Level Estimated
04:59PM 42.2819 -71.7609 275° West  Level FlightAware Approximate
05:00PM 42.2839 -71.7904 275° West  Level FlightAware Approximate
05:01PM 42.2859 -71.8200 275° West  Level FlightAware Approximate
05:02PM 42.2878 -71.8495 275° West  Level FlightAware Approximate
05:03PM 42.2898 -71.8791 275° West  Level FlightAware Approximate
05:04PM 42.2918 -71.9086 275° West  Level FlightAware Approximate
05:05PM 42.2772 -71.9307 248° West  Level Estimated
05:06PM 42.2742 -71.9601 262° West  Level FlightAware Approximate
05:07PM 42.2665 -72.0373 262° West  Level FlightAware Approximate
05:08PM 42.2274 -72.0945 259° West  Level Estimated
05:09PM 42.2295 -72.1722 272° West  Level FlightAware Approximate
05:10PM 42.1898 -72.2285 255° West  Level Estimated
05:11PM 42.1499 -72.2847 251° West  Level Estimated
05:11PM 42.4081 -71.3969 240° Southwest 166 191 3,900  Level Boston Center
05:12PM 42.1101 -72.3408 254° West  Level Estimated
05:12PM 42.3794 -71.4508 234° Southwest 166 191 5,600  Level Boston Center
05:13PM 42.1187 -72.4175 279° West  Level FlightAware Approximate
05:13PM 42.3694 -71.5017 255° West 166 191 7,100  Level Boston Center
05:14PM 42.1273 -72.4944 279° West  Level FlightAware Approximate
05:14PM 42.3658 -71.5661 266° West 160 184 8,600  Level Boston Center
05:15PM 42.3600 -71.6253 262° West 166 191 10,200 1,680 Climbing Boston Center
05:16PM 42.3542 -71.6872 263° West 161 185 12,000 900 Climbing Boston Center
05:17PM 42.3503 -71.7575 266° West 185 213 12,000  Level Boston Center
05:18PM 42.3322 -71.8531 256° West 235 270 12,000 -360 Level Boston Center
05:19PM 42.3014 -71.9236 239° Southwest 232 267 11,300 -960 Descending Boston Center
05:20PM 42.2850 -72.0108 256° West 239 275 10,200 -660 Descending Boston Center
05:21PM 42.2706 -72.0894 256° West 245 282 10,000 -120 Descending Boston Center
05:22PM 42.2583 -72.1819 260° West 240 276 10,000  Level Boston Center
05:23PM 42.2481 -72.2633 260° West 242 278 10,000  Level Boston Center
05:24PM 42.2378 -72.3558 261° West 237 273 10,000  Level Boston Center
05:25PM 42.2294 -72.4372 262° West 237 273 10,000  Level Boston Center
05:26PM 42.2192 -72.5353 262° West 237 273 10,000 -180 Level Boston Center
05:27PM 42.2086 -72.6167 260° West 237 273 9,700 -660 Descending Boston Center
05:28PM 42.1689 -72.6867 233° Southwest 237 273 8,800 -660 Descending Boston Center
05:29PM 42.1144 -72.7481 220° Southwest 232 267 8,500 -180 Descending Boston Center
05:30PM 42.0642 -72.8064 221° Southwest 237 273 8,500  Level Boston Center
05:31PM 42.0161 -72.8647 222° Southwest 237 273 8,500  Level Boston Center
05:32PM 41.9681 -72.9203 221° Southwest 242 278 8,500  Level Boston Center
05:33PM 41.9156 -72.9814 221° Southwest 242 278 8,500  Level Boston Center
05:34PM 41.8717 -73.0311 220° Southwest 237 273 8,500  Level Boston Center
05:35PM 41.8169 -73.0975 222° Southwest 237 273 8,500  Level Boston Center
05:36PM 41.7708 -73.1469 219° Southwest 237 273 8,500  Level Boston Center
05:37PM 41.7164 -73.2133 222° Southwest 237 273 8,500  Level Boston Center
05:38PM 41.6700 -73.2656 220° Southwest 237 273 8,500  Level Boston Center
05:39PM 41.6153 -73.3286 221° Southwest 237 273 8,500  Level Boston Center
05:40PM 41.5628 -73.3833 218° Southwest 237 273 8,500  Level Boston Center
05:41PM 41.5144 -73.4408 222° Southwest 237 273 8,500  Level Boston Center
05:42PM 41.4681 -73.4928 220° Southwest 237 273 8,500  Level Boston Center
05:43PM 41.4133 -73.5556 221° Southwest 237 273 8,500  Level Boston Center
05:44PM 41.3669 -73.6072 220° Southwest 237 273 8,500  Level Boston Center
05:44PM 41.3333 -73.6500 224° Southwest 237 273 8,500  Level New York TRACON
05:45PM 41.2833 -73.7000 217° Southwest 237 273 8,500  Level New York TRACON
05:46PM 41.2333 -73.7500 217° Southwest 236 272 8,500  Level New York TRACON
05:47PM 41.1833 -73.8167 225° Southwest 238 274 8,500  Level New York TRACON
05:48PM 41.1333 -73.8667 217° Southwest 238 274 8,500  Level New York TRACON
05:49PM 41.0833 -73.9167 217° Southwest 239 275 8,500  Level New York TRACON
05:50PM 41.0333 -73.9833 225° Southwest 240 276 8,500  Level New York TRACON
05:51PM 40.9833 -74.0333 217° Southwest 239 275 8,500  Level New York TRACON
05:52PM 40.9333 -74.0833 217° Southwest 239 275 8,500  Level New York TRACON
05:53PM 40.8833 -74.1500 225° Southwest 238 274 8,500 -600 Level New York TRACON
05:54PM 40.8333 -74.2000 217° Southwest 219 252 7,300 -1,140 Descending New York TRACON
05:55PM 40.7833 -74.2500 217° Southwest 217 250 6,200 -1,020 Descending New York TRACON
05:56PM 40.7333 -74.3000 217° Southwest 228 262 5,200 -1,020 Descending New York TRACON
05:57PM 40.6833 -74.3667 225° Southwest 231 266 4,200 -900 Descending New York TRACON
05:58PM 40.6333 -74.4167 217° Southwest 220 253 3,500 -360 Descending New York TRACON
05:59PM 40.5833 -74.4667 217° Southwest 219 252 3,500  Level New York TRACON
06:00PM 40.5500 -74.5167 229° Southwest 218 251 3,500  Level New York TRACON
06:01PM 40.5000 -74.5667 217° Southwest 223 257 3,500  Level New York TRACON
06:02PM 40.4500 -74.6167 217° Southwest 221 254 3,500  Level New York TRACON
06:04PM 40.3937 -74.6677 229° Southwest  Level FlightAware Approximate
06:11PM 40.2667 -74.8000 217° Southwest  Level FlightAware Approximate
06:12PM 40.2767 -74.8135 217° Southwest  Level Estimated
06:13PM 40.2767 -74.8135 217° Southwest  Level Estimated
06:14PM 40.2767 -74.8135 217° Southwest  Level Estimated
06:15PM 40.2767 -74.8135 217° Southwest  Level Estimated